Time;durP1;ratioP1;P1;durP2;ratioP2;P2;SDS_P1;SDS_P2;PMS_P1;PMS_P2;Temp;Humidity;BMP_temperature;BMP_pressure;BME280_temperature;BME280_humidity;BME280_pressure;Samples;Min_cycle;Max_cycle;Signal;HPM_P1;HPM_P2
2021/04/01 00:01:56;;;;;;;8.75;5.80;;;18.50;58.80;;;;;;10456582;28;20029;-62
2021/04/01 00:06:57;;;;;;;7.07;5.70;;;18.50;58.80;;;;;;10460011;28;20029;-62
2021/04/01 00:11:58;;;;;;;6.85;5.07;;;18.50;58.80;;;;;;10456885;28;20171;-62
2021/04/01 00:16:58;;;;;;;7.85;5.75;;;18.50;58.80;;;;;;10456203;28;20112;-62
2021/04/01 00:22:00;;;;;;;7.90;5.95;;;18.50;58.80;;;;;;10455986;28;20378;-62
2021/04/01 00:27:02;;;;;;;8.32;6.13;;;18.50;58.80;;;;;;10456124;28;20041;-62
2021/04/01 00:32:04;;;;;;;7.95;5.22;;;18.50;58.80;;;;;;10486140;28;20032;-62
2021/04/01 00:37:05;;;;;;;7.03;5.72;;;18.50;58.70;;;;;;10496272;28;20052;-62
2021/04/01 00:42:06;;;;;;;9.73;6.68;;;18.50;58.70;;;;;;10472837;28;20401;-62
2021/04/01 00:47:08;;;;;;;8.52;5.68;;;18.50;58.70;;;;;;10460515;28;20054;-62
2021/04/01 00:52:09;;;;;;;7.82;5.63;;;18.50;58.60;;;;;;10472245;28;20112;-62
2021/04/01 00:57:10;;;;;;;8.35;6.45;;;18.40;58.70;;;;;;10454179;28;20033;-62
2021/04/01 01:02:11;;;;;;;8.40;6.20;;;18.40;58.70;;;;;;10454801;28;20029;-62
2021/04/01 01:07:13;;;;;;;7.03;6.32;;;18.40;58.60;;;;;;10456731;28;20037;-62
2021/04/01 01:12:13;;;;;;;8.60;6.47;;;18.40;58.60;;;;;;10467365;28;20131;-62
2021/04/01 01:17:15;;;;;;;7.20;6.22;;;18.40;58.60;;;;;;10482901;28;20139;-62
2021/04/01 01:22:18;;;;;;;6.40;5.80;;;18.40;58.60;;;;;;10471854;28;20025;-62
2021/04/01 01:27:20;;;;;;;8.30;6.55;;;18.40;58.60;;;;;;10484928;28;20056;-62
2021/04/01 01:32:21;;;;;;;8.27;6.30;;;18.40;58.60;;;;;;10476360;28;20441;-62
2021/04/01 01:37:21;;;;;;;8.50;5.68;;;18.40;58.60;;;;;;10461281;28;20445;-63
2021/04/01 01:42:24;;;;;;;7.35;5.47;;;18.40;58.60;;;;;;10461277;28;20132;-62
2021/04/01 01:47:24;;;;;;;10.65;7.88;;;18.40;58.50;;;;;;10482252;28;20119;-62
2021/04/01 01:52:25;;;;;;;7.55;6.32;;;18.40;58.60;;;;;;10501312;28;20119;-62
2021/04/01 01:57:26;;;;;;;7.07;5.97;;;18.40;58.60;;;;;;10502957;28;20056;-62
2021/04/01 02:02:27;;;;;;;9.23;6.18;;;18.40;58.60;;;;;;10489420;28;20064;-62
2021/04/01 02:07:27;;;;;;;7.60;5.50;;;18.40;58.60;;;;;;10469716;28;20114;-62
2021/04/01 02:12:28;;;;;;;8.77;6.95;;;18.30;58.50;;;;;;10475521;28;20082;-62
2021/04/01 02:17:29;;;;;;;6.38;5.72;;;18.30;58.50;;;;;;10502391;28;20056;-62
2021/04/01 02:22:29;;;;;;;7.75;6.13;;;18.30;58.50;;;;;;10506993;28;20024;-62
2021/04/01 02:27:31;;;;;;;7.03;6.15;;;18.30;58.50;;;;;;10496022;28;20506;-62
2021/04/01 02:32:32;;;;;;;8.10;5.65;;;18.30;58.60;;;;;;10473865;28;20048;-62
2021/04/01 02:37:33;;;;;;;7.70;6.32;;;18.30;58.50;;;;;;10459927;28;20389;-61
2021/04/01 02:42:33;;;;;;;6.90;5.82;;;18.30;58.40;;;;;;10459185;28;20466;-62
2021/04/01 02:47:34;;;;;;;8.77;6.68;;;18.30;58.40;;;;;;10482440;28;20090;-62
2021/04/01 02:52:35;;;;;;;7.97;6.18;;;18.30;58.40;;;;;;10473696;28;20033;-62
2021/04/01 02:57:36;;;;;;;6.38;5.43;;;18.30;58.50;;;;;;10458171;28;20439;-62
2021/04/01 03:02:39;;;;;;;8.05;7.22;;;18.30;58.50;;;;;;10472673;28;20121;-62
2021/04/01 03:07:41;;;;;;;6.90;6.10;;;18.30;58.50;;;;;;10484871;28;20031;-62
2021/04/01 03:12:41;;;;;;;7.90;6.22;;;18.30;58.50;;;;;;10475147;28;20040;-62
2021/04/01 03:17:43;;;;;;;8.45;6.50;;;18.30;58.50;;;;;;10499884;28;20515;-62
2021/04/01 03:22:43;;;;;;;8.35;6.53;;;18.20;58.40;;;;;;10472389;28;20405;-62
2021/04/01 03:27:44;;;;;;;7.53;5.85;;;18.30;58.60;;;;;;10457875;28;20086;-62
2021/04/01 03:32:47;;;;;;;6.80;5.40;;;18.20;58.40;;;;;;10479286;28;20036;-62
2021/04/01 03:37:50;;;;;;;8.25;6.50;;;18.20;58.40;;;;;;10497543;28;20041;-62
2021/04/01 03:42:51;;;;;;;8.90;6.28;;;18.20;59.00;;;;;;10471394;28;20024;-62
2021/04/01 03:47:52;;;;;;;7.13;5.80;;;18.20;58.40;;;;;;10482617;28;20047;-62
2021/04/01 03:52:53;;;;;;;7.07;6.30;;;18.20;58.40;;;;;;10473637;28;20033;-62
2021/04/01 03:58:11;;;;;;;7.22;6.20;;;18.20;58.40;;;;;;10456677;28;20501;-62
2021/04/01 04:13:30;;;;;;;7.55;6.75;;;18.20;58.40;;;;;;10478197;28;20071;-62
2021/04/01 04:18:31;;;;;;;8.90;6.63;;;18.20;58.40;;;;;;10495672;28;20021;-62
2021/04/01 04:23:33;;;;;;;8.60;6.00;;;18.20;58.30;;;;;;10477104;28;20575;-62
2021/04/01 04:28:35;;;;;;;8.75;7.00;;;18.20;58.40;;;;;;10456118;28;20032;-62
2021/04/01 04:33:37;;;;;;;7.90;6.15;;;18.10;58.40;;;;;;10457685;28;20106;-62
2021/04/01 04:38:37;;;;;;;8.73;6.82;;;18.10;58.40;;;;;;10497105;28;20040;-62
2021/04/01 04:43:38;;;;;;;8.20;6.25;;;18.10;58.30;;;;;;10477518;28;20082;-62
2021/04/01 04:48:39;;;;;;;7.55;6.45;;;18.10;59.00;;;;;;10450508;28;20067;-62
2021/04/01 04:53:39;;;;;;;9.43;7.28;;;18.10;58.30;;;;;;10455018;28;20052;-62
2021/04/01 04:58:48;;;;;;;7.43;5.53;;;18.10;58.30;;;;;;10473675;28;20128;-61
2021/04/01 05:09:09;;;;;;;;;;;18.10;58.50;;;;;;10454365;28;20401;-63
2021/04/01 05:14:10;;;;;;;13.00;7.97;;;18.10;58.50;;;;;;10453284;28;19921;-62
2021/04/01 05:19:11;;;;;;;10.48;6.40;;;18.10;59.90;;;;;;10484417;28;20108;-63
2021/04/01 05:24:12;;;;;;;12.77;6.32;;;18.20;60.20;;;;;;10489142;28;20536;-64
2021/04/01 05:29:16;;;;;;;12.32;7.00;;;18.20;60.40;;;;;;10462575;28;20055;-65
2021/04/01 05:34:18;;;;;;;12.38;7.78;;;18.20;60.60;;;;;;10461585;28;20044;-64
2021/04/01 05:39:21;;;;;;;10.27;6.53;;;18.20;61.30;;;;;;10496412;28;20078;-65
2021/04/01 05:44:31;;;;;;;8.52;6.03;;;18.30;61.10;;;;;;10495166;28;20460;-65
2021/04/01 06:05:30;;;;;;;13.18;6.70;;;18.20;60.50;;;;;;10475372;28;20082;-64
2021/04/01 06:10:33;;;;;;;16.63;6.60;;;18.20;60.50;;;;;;10459335;28;20036;-64
2021/04/01 06:15:35;;;;;;;13.82;7.30;;;18.20;60.20;;;;;;10458370;28;20037;-63
2021/04/01 06:20:39;;;;;;;9.50;7.05;;;18.10;60.30;;;;;;10446585;28;20108;-64
2021/04/01 06:25:40;;;;;;;12.40;7.25;;;18.10;60.30;;;;;;10458029;28;20045;-64
2021/04/01 06:30:49;;;;;;;12.35;7.55;;;18.10;60.00;;;;;;10475053;28;20077;-63
2021/04/01 06:36:03;;;;;;;14.70;7.28;;;18.10;60.10;;;;;;10456692;28;20021;-61
2021/04/01 06:41:09;;;;;;;12.35;7.15;;;18.10;59.90;;;;;;10457007;28;20025;-61
2021/04/01 06:46:11;;;;;;;9.30;6.63;;;18.10;59.90;;;;;;10455111;28;20116;-62
2021/04/01 06:51:15;;;;;;;11.32;6.65;;;18.10;59.90;;;;;;10455049;28;20438;-61
2021/04/01 07:01:36;;;;;;;10.30;6.75;;;18.10;60.00;;;;;;10458788;28;20065;-61
2021/04/01 07:06:41;;;;;;;9.85;6.60;;;18.10;60.00;;;;;;10461777;28;20082;-61
2021/04/01 07:11:42;;;;;;;10.85;7.35;;;18.10;59.90;;;;;;10458616;28;20036;-61
2021/04/01 07:16:54;;;;;;;9.45;6.65;;;18.10;59.80;;;;;;10458076;28;20021;-61
2021/04/01 07:48:23;;;;;;;9.52;6.70;;;18.10;59.60;;;;;;10456389;28;20064;-62
2021/04/01 07:53:26;;;;;;;10.18;6.35;;;18.10;59.70;;;;;;10455810;28;20255;-61
2021/04/01 08:08:48;;;;;;;11.13;7.43;;;18.10;59.80;;;;;;10458157;28;20091;-61
2021/04/01 08:14:02;;;;;;;10.23;7.57;;;18.10;59.80;;;;;;10455056;28;20099;-61
2021/04/01 08:19:04;;;;;;;12.95;8.02;;;18.10;59.80;;;;;;10455664;28;20454;-61
2021/04/01 08:24:11;;;;;;;12.85;7.75;;;18.10;59.80;;;;;;10455508;28;20076;-61
2021/04/01 08:34:39;;;;;;;;;;;18.10;59.80;;;;;;10456047;28;20485;-61
2021/04/01 08:39:43;;;;;;;10.02;7.72;;;18.10;59.80;;;;;;10455902;28;20275;-62
2021/04/01 08:45:36;;;;;;;9.75;7.72;;;18.10;59.90;;;;;;10454023;28;20021;-61
2021/04/01 08:51:07;;;;;;;12.52;8.43;;;18.10;59.90;;;;;;10453669;28;20040;-61
2021/04/01 08:56:36;;;;;;;9.25;7.47;;;18.10;59.90;;;;;;10454762;28;20029;-61
2021/04/01 09:01:42;;;;;;;11.65;8.45;;;18.10;59.80;;;;;;10462596;28;20124;-61
2021/04/01 09:06:46;;;;;;;11.82;8.75;;;18.20;59.90;;;;;;10466680;28;20393;-61
2021/04/01 09:22:23;;;;;;;12.65;8.80;;;18.20;60.00;;;;;;10462768;28;20033;-61
2021/04/01 09:27:24;;;;;;;9.95;8.27;;;18.20;59.90;;;;;;10462431;28;20056;-61
2021/04/01 09:32:26;;;;;;;11.40;8.60;;;18.20;59.90;;;;;;10461303;28;20056;-62
2021/04/01 09:37:27;;;;;;;12.23;8.25;;;18.20;59.90;;;;;;10460747;28;20040;-61
2021/04/01 09:42:43;;;;;;;10.43;8.63;;;18.30;59.90;;;;;;10467042;28;20032;-62
2021/04/01 09:47:52;;;;;;;10.75;8.55;;;18.30;59.80;;;;;;10461585;28;20033;-62
2021/04/01 09:53:21;;;;;;;10.77;8.57;;;18.30;59.70;;;;;;10461403;28;20029;-61
2021/04/01 09:58:25;;;;;;;12.55;8.63;;;18.30;59.70;;;;;;10458388;28;20041;-62
2021/04/01 10:03:53;;;;;;;12.63;8.77;;;18.30;59.70;;;;;;10460913;28;20400;-61
2021/04/01 10:09:10;;;;;;;11.43;8.60;;;18.30;59.60;;;;;;10464478;28;20374;-61
2021/04/01 10:14:12;;;;;;;12.57;9.45;;;18.40;59.60;;;;;;10460852;28;20429;-62
2021/04/01 10:19:14;;;;;;;13.52;9.32;;;18.40;59.60;;;;;;10460849;28;20120;-61
2021/04/01 10:24:28;;;;;;;11.75;9.15;;;18.40;59.50;;;;;;10459026;28;20397;-61
2021/04/01 10:29:57;;;;;;;14.88;9.80;;;18.50;59.50;;;;;;10459912;28;20032;-58
2021/04/01 10:35:06;;;;;;;10.60;8.30;;;18.50;59.50;;;;;;10459963;28;20397;-62
2021/04/01 10:40:10;;;;;;;11.05;8.13;;;18.50;59.40;;;;;;10460402;28;20027;-61
2021/04/01 10:45:13;;;;;;;8.82;6.63;;;18.60;59.40;;;;;;10459864;28;20046;-62
2021/04/01 10:50:14;;;;;;;11.02;7.40;;;18.50;59.40;;;;;;10460133;28;20496;-60
2021/04/01 10:55:15;;;;;;;10.13;7.82;;;18.60;59.50;;;;;;10456691;28;20029;-62
2021/04/01 11:00:16;;;;;;;11.20;6.60;;;18.60;59.50;;;;;;10459074;28;20377;-62
2021/04/01 11:05:24;;;;;;;9.52;6.47;;;18.70;59.50;;;;;;10458606;28;20033;-62
2021/04/01 11:10:30;;;;;;;9.02;6.32;;;18.70;59.40;;;;;;10461976;28;20035;-62
2021/04/01 11:15:37;;;;;;;7.82;5.60;;;18.70;59.40;;;;;;10457993;28;20051;-62
2021/04/01 11:20:39;;;;;;;8.18;6.93;;;18.70;59.40;;;;;;10456165;28;20017;-62
2021/04/01 11:25:48;;;;;;;6.40;5.18;;;18.80;59.40;;;;;;10457687;28;20080;-62
2021/04/01 11:30:54;;;;;;;6.53;4.72;;;18.70;59.30;;;;;;10457709;28;20041;-62
2021/04/01 11:36:20;;;;;;;6.18;4.50;;;18.80;59.30;;;;;;10457645;28;20373;-62
2021/04/01 11:41:23;;;;;;;5.40;4.55;;;18.80;59.20;;;;;;10454815;28;20124;-62
2021/04/01 11:46:32;;;;;;;6.40;4.55;;;18.80;59.20;;;;;;10455155;28;20037;-62
2021/04/01 11:51:35;;;;;;;5.47;4.85;;;18.90;59.20;;;;;;10456497;28;20126;-62
2021/04/01 11:56:42;;;;;;;5.13;3.67;;;18.90;59.20;;;;;;10454431;28;20025;-62
2021/04/01 12:01:51;;;;;;;4.95;3.80;;;18.90;59.10;;;;;;10455539;28;20032;-62
2021/04/01 12:06:53;;;;;;;4.63;4.10;;;18.90;59.20;;;;;;10457567;28;20025;-62
2021/04/01 12:11:54;;;;;;;4.68;3.60;;;18.90;59.10;;;;;;10454151;28;20029;-62
2021/04/01 12:17:04;;;;;;;3.70;3.15;;;18.90;59.10;;;;;;10454994;28;20029;-62
2021/04/01 12:22:08;;;;;;;3.83;3.17;;;18.90;59.10;;;;;;10470040;28;20036;-62
2021/04/01 12:27:09;;;;;;;3.97;3.33;;;18.90;59.10;;;;;;10454354;28;20037;-62
2021/04/01 12:32:09;;;;;;;5.03;2.78;;;18.90;59.10;;;;;;10454747;28;20116;-62
2021/04/01 12:37:16;;;;;;;4.05;3.33;;;19.00;59.20;;;;;;10455391;28;20033;-62
2021/04/01 12:42:17;;;;;;;4.75;3.38;;;19.00;59.10;;;;;;10454181;28;20028;-62
2021/04/01 12:47:23;;;;;;;4.55;3.20;;;19.00;59.10;;;;;;10454929;28;20448;-62
2021/04/01 12:52:25;;;;;;;3.40;2.80;;;19.00;59.00;;;;;;10454678;28;20041;-63
2021/04/01 12:57:26;;;;;;;3.85;3.08;;;19.00;59.00;;;;;;10453495;28;20032;-63
2021/04/01 13:02:29;;;;;;;4.00;3.35;;;19.10;59.00;;;;;;10454816;28;20025;-62
2021/04/01 13:12:46;;;;;;;3.92;2.70;;;19.10;59.00;;;;;;10444512;28;20055;-63
2021/04/01 13:17:47;;;;;;;4.28;3.13;;;19.10;59.00;;;;;;10454582;28;20120;-62
2021/04/01 13:23:10;;;;;;;5.90;3.35;;;19.10;58.90;;;;;;10454159;28;20397;-62
2021/04/01 13:28:12;;;;;;;3.47;2.50;;;19.20;59.00;;;;;;10475093;28;20075;-62
2021/04/01 13:33:21;;;;;;;4.10;2.63;;;19.20;58.90;;;;;;10467908;28;20429;-63
2021/04/01 13:38:23;;;;;;;3.45;2.38;;;19.20;58.90;;;;;;10453223;28;20667;-62
2021/04/01 13:43:29;;;;;;;3.55;2.42;;;19.20;58.80;;;;;;10454394;28;20029;-62
2021/04/01 13:48:32;;;;;;;3.50;2.63;;;19.30;58.90;;;;;;10461257;28;20540;-63
2021/04/01 13:59:20;;;;;;;2.88;2.03;;;19.30;58.80;;;;;;10461951;28;20041;-63
2021/04/01 14:09:38;;;;;;;3.15;2.03;;;19.30;58.80;;;;;;10462451;28;20385;-62
2021/04/01 14:14:39;;;;;;;4.07;2.38;;;19.30;58.80;;;;;;10459939;28;20075;-62
2021/04/01 14:19:41;;;;;;;3.17;2.40;;;19.30;58.80;;;;;;10458772;28;20477;-62
2021/04/01 14:24:54;;;;;;;3.80;2.47;;;19.30;58.80;;;;;;10462623;28;20083;-62
2021/04/01 14:29:56;;;;;;;4.35;2.83;;;19.30;58.80;;;;;;10460199;28;20128;-62
2021/04/01 14:35:01;;;;;;;3.38;2.17;;;19.30;58.80;;;;;;10459708;28;20079;-62
2021/04/01 14:40:07;;;;;;;2.55;1.98;;;19.30;58.80;;;;;;10459862;28;20025;-62
2021/04/01 14:45:09;;;;;;;3.15;1.92;;;19.30;58.70;;;;;;10458363;28;20029;-62
2021/04/01 14:50:11;;;;;;;3.33;2.30;;;19.30;58.60;;;;;;10459383;28;20429;-62
2021/04/01 14:55:13;;;;;;;5.47;2.47;;;19.30;58.60;;;;;;10457722;28;20086;-62
2021/04/01 15:00:16;;;;;;;3.50;2.10;;;19.30;58.60;;;;;;10459064;28;20100;-62
2021/04/01 15:05:19;;;;;;;3.92;2.33;;;19.40;58.60;;;;;;10458785;28;20024;-61
2021/04/01 15:10:22;;;;;;;4.72;2.22;;;19.30;58.50;;;;;;10461007;28;20102;-62
2021/04/01 15:15:23;;;;;;;2.88;2.28;;;19.30;58.50;;;;;;10458525;28;20389;-61
2021/04/01 15:20:25;;;;;;;2.78;1.90;;;19.40;58.50;;;;;;10458220;28;20112;-62
2021/04/01 15:25:26;;;;;;;3.53;1.98;;;19.30;58.50;;;;;;10457558;28;20494;-62
2021/04/01 15:30:27;;;;;;;7.15;2.60;;;19.30;58.50;;;;;;10458796;28;20040;-61
2021/04/01 15:35:28;;;;;;;7.75;2.67;;;19.30;58.20;;;;;;10499279;28;20370;-63
2021/04/01 15:40:29;;;;;;;6.78;2.25;;;19.30;58.10;;;;;;10474780;28;20028;-62
2021/04/01 15:45:30;;;;;;;15.98;2.63;;;19.30;58.20;;;;;;10440919;28;20057;-61
2021/04/01 15:50:32;;;;;;;21.40;3.83;;;19.40;58.30;;;;;;10453807;28;20417;-61
2021/04/01 15:55:33;;;;;;;26.38;4.78;;;19.40;57.30;;;;;;10453194;28;20513;-60
2021/04/01 16:00:34;;;;;;;14.05;3.58;;;19.40;56.80;;;;;;10456682;28;20131;-60
2021/04/01 16:05:36;;;;;;;9.80;2.92;;;19.40;56.70;;;;;;10466081;28;20420;-59
2021/04/01 16:10:37;;;;;;;14.25;3.75;;;19.40;56.70;;;;;;10447568;28;20024;-57
2021/04/01 16:15:40;;;;;;;13.30;3.33;;;19.40;57.90;;;;;;10454408;28;20045;-57
2021/04/01 16:20:42;;;;;;;12.30;3.72;;;19.50;59.90;;;;;;10497641;28;20029;-57
2021/04/01 16:25:43;;;;;;;10.98;3.03;;;19.50;61.00;;;;;;10460757;28;20045;-57
2021/04/01 16:30:44;;;;;;;13.85;3.65;;;19.50;58.50;;;;;;10455708;28;20025;-57
2021/04/01 16:35:47;;;;;;;15.43;3.67;;;19.50;59.40;;;;;;10488227;28;20041;-58
2021/04/01 16:40:48;;;;;;;19.80;4.55;;;19.40;58.90;;;;;;10492234;28;20028;-59
2021/04/01 16:45:50;;;;;;;16.95;3.80;;;19.40;59.30;;;;;;10465545;28;20048;-59
2021/04/01 16:50:51;;;;;;;10.75;3.65;;;19.40;59.90;;;;;;10455294;28;20094;-59
2021/04/01 16:55:59;;;;;;;13.45;3.80;;;19.40;59.80;;;;;;10479585;28;20170;-59
2021/04/01 17:01:00;;;;;;;13.32;3.45;;;19.40;59.70;;;;;;10470416;28;20121;-59
2021/04/01 17:06:03;;;;;;;13.07;3.70;;;19.30;59.30;;;;;;10465048;28;20056;-59
2021/04/01 17:11:04;;;;;;;13.57;3.80;;;19.30;59.10;;;;;;10475070;28;20031;-58
2021/04/01 17:16:05;;;;;;;15.02;3.20;;;19.30;59.10;;;;;;10474849;28;20029;-58
2021/04/01 17:21:06;;;;;;;16.20;3.38;;;19.30;59.00;;;;;;10471533;28;20029;-58
2021/04/01 17:26:07;;;;;;;9.85;3.92;;;19.20;58.80;;;;;;10470295;28;20059;-59
2021/04/01 17:31:08;;;;;;;9.55;3.45;;;19.20;58.80;;;;;;10478530;28;20060;-59
2021/04/01 17:36:10;;;;;;;13.70;3.88;;;19.20;59.00;;;;;;10459335;28;20040;-59
2021/04/01 17:41:11;;;;;;;13.23;3.28;;;19.20;59.20;;;;;;10461426;28;20439;-60
2021/04/01 17:46:12;;;;;;;7.80;3.03;;;19.20;60.20;;;;;;10477690;28;20035;-60
2021/04/01 17:51:13;;;;;;;8.77;2.80;;;19.20;59.80;;;;;;10488585;28;20404;-59
2021/04/01 17:56:14;;;;;;;13.15;3.00;;;19.20;59.70;;;;;;10469919;28;20786;-59
2021/04/01 18:01:22;;;;;;;5.10;2.17;;;19.20;59.50;;;;;;10487649;28;20029;-59
2021/04/01 18:32:25;;;;;;;7.13;2.58;;;19.20;61.20;;;;;;10488882;28;20060;-60
2021/04/01 18:38:11;;;;;;;8.20;3.17;;;19.20;61.30;;;;;;10492469;28;20099;-59
2021/04/01 18:42:55;;;;;;;5.18;2.15;;;19.10;60.90;;;;;;10454374;28;20075;-59
2021/04/01 18:48:11;;;;;;;7.78;2.50;;;19.20;60.20;;;;;;10449277;28;20029;-60
2021/04/01 18:53:18;;;;;;;8.75;2.97;;;19.10;59.80;;;;;;10452066;28;20052;-62
2021/04/01 18:58:20;;;;;;;10.45;2.45;;;19.10;60.60;;;;;;10459152;28;20037;-60
2021/04/01 19:03:24;;;;;;;6.93;2.42;;;19.20;60.90;;;;;;10469200;28;20111;-59
2021/04/01 19:08:45;;;;;;;8.55;3.08;;;19.20;61.00;;;;;;10473405;28;20051;-60
2021/04/01 19:24:31;;;;;;;12.68;2.42;;;19.10;60.40;;;;;;10490528;28;20049;-60
2021/04/01 19:29:32;;;;;;;8.05;2.13;;;19.10;60.80;;;;;;10478427;28;20028;-61
2021/04/01 19:34:35;;;;;;;4.97;1.98;;;19.10;60.40;;;;;;10463094;28;20044;-63
2021/04/01 19:39:41;;;;;;;8.77;2.65;;;19.10;60.40;;;;;;10481276;28;20037;-60
2021/04/01 19:44:45;;;;;;;5.25;1.92;;;19.10;60.60;;;;;;10477895;28;20033;-61
2021/04/01 19:49:49;;;;;;;7.88;2.58;;;19.10;61.00;;;;;;10475937;28;20559;-60
2021/04/01 19:54:52;;;;;;;6.22;2.17;;;19.10;60.90;;;;;;10471439;28;20098;-60
2021/04/01 19:59:53;;;;;;;5.25;2.00;;;19.10;60.90;;;;;;10467790;28;20075;-57
2021/04/01 20:04:54;;;;;;;8.82;2.42;;;19.10;60.10;;;;;;10453413;28;20710;-57
2021/04/01 20:09:55;;;;;;;3.75;1.98;;;19.10;60.10;;;;;;10461534;28;20058;-57
2021/04/01 20:14:55;;;;;;;6.85;2.35;;;19.00;60.10;;;;;;10453103;28;20520;-57
2021/04/01 20:19:56;;;;;;;4.95;1.70;;;19.00;60.00;;;;;;10463704;28;20108;-57
2021/04/01 20:24:59;;;;;;;5.35;1.77;;;19.00;60.10;;;;;;10496314;28;20090;-56
2021/04/01 20:30:01;;;;;;;10.95;2.42;;;19.00;60.00;;;;;;10477230;28;20503;-57
2021/04/01 20:35:04;;;;;;;4.50;1.77;;;19.00;59.90;;;;;;10456875;28;20036;-57
2021/04/01 20:40:15;;;;;;;6.80;1.77;;;18.90;59.70;;;;;;10470595;28;20036;-56
2021/04/01 20:45:20;;;;;;;5.75;1.80;;;18.90;59.60;;;;;;10497235;28;20365;-57
2021/04/01 20:50:38;;;;;;;5.90;1.90;;;18.90;59.70;;;;;;10470817;28;20090;-56
2021/04/01 20:55:40;;;;;;;5.85;1.92;;;18.90;59.60;;;;;;10490974;28;20385;-57
2021/04/01 21:00:45;;;;;;;6.32;1.33;;;18.90;59.70;;;;;;10474769;28;20381;-57
2021/04/01 21:05:47;;;;;;;4.78;1.58;;;18.90;59.60;;;;;;10457527;28;20098;-57
2021/04/01 21:10:50;;;;;;;6.00;1.65;;;18.90;59.60;;;;;;10463239;28;20113;-57
2021/04/01 21:15:51;;;;;;;3.22;1.73;;;18.80;59.60;;;;;;10470908;28;20039;-57
2021/04/01 21:20:54;;;;;;;4.28;1.73;;;18.80;59.50;;;;;;10472425;28;20493;-57
2021/04/01 21:25:57;;;;;;;4.40;1.60;;;18.80;59.60;;;;;;10454634;28;20350;-57
2021/04/01 21:31:02;;;;;;;4.88;1.88;;;18.80;59.40;;;;;;10490491;28;20107;-57
2021/04/01 21:36:05;;;;;;;3.42;1.15;;;18.80;59.40;;;;;;10465234;28;20097;-57
2021/04/01 21:41:15;;;;;;;4.53;1.50;;;18.80;60.00;;;;;;10477980;28;20033;-57
2021/04/01 21:46:16;;;;;;;2.55;1.23;;;18.80;59.40;;;;;;10495848;28;20031;-57
2021/04/01 21:51:17;;;;;;;2.60;0.98;;;18.70;59.30;;;;;;10468952;28;20043;-57
2021/04/01 21:56:17;;;;;;;5.68;1.88;;;18.70;59.20;;;;;;10453982;28;20029;-57
2021/04/01 22:01:18;;;;;;;3.47;1.40;;;18.70;59.20;;;;;;10454061;28;20702;-57
2021/04/01 22:06:19;;;;;;;4.78;1.40;;;18.70;59.20;;;;;;10460550;28;20128;-57
2021/04/01 22:11:20;;;;;;;4.72;1.30;;;18.70;59.20;;;;;;10479299;28;20111;-57
2021/04/01 22:16:20;;;;;;;5.38;1.27;;;18.70;59.20;;;;;;10465085;28;20145;-57
2021/04/01 22:21:21;;;;;;;2.60;1.20;;;18.70;59.10;;;;;;10497019;28;20162;-57
2021/04/01 22:26:22;;;;;;;3.22;1.17;;;18.70;59.10;;;;;;10468118;28;20080;-57
2021/04/01 22:31:23;;;;;;;2.08;1.00;;;18.60;59.60;;;;;;10483434;28;20032;-57
2021/04/01 22:36:24;;;;;;;2.75;1.00;;;18.60;58.90;;;;;;10492743;28;20127;-57
2021/04/01 22:41:29;;;;;;;4.28;1.30;;;18.60;58.90;;;;;;10475214;28;20116;-57
2021/04/01 22:46:29;;;;;;;2.25;0.90;;;18.60;58.90;;;;;;10459790;28;20037;-57
2021/04/01 22:51:30;;;;;;;3.67;1.55;;;18.60;58.90;;;;;;10474009;28;20037;-57
2021/04/01 22:56:31;;;;;;;2.60;0.93;;;18.60;58.80;;;;;;10474865;28;20033;-57
2021/04/01 23:01:33;;;;;;;1.63;1.05;;;18.60;58.80;;;;;;10472256;28;20040;-57
2021/04/01 23:06:34;;;;;;;2.83;1.23;;;18.50;58.70;;;;;;10462746;28;20512;-57
2021/04/01 23:11:35;;;;;;;3.58;1.15;;;18.60;58.80;;;;;;10478974;28;20066;-57
2021/04/01 23:16:35;;;;;;;3.03;1.10;;;18.50;58.70;;;;;;10457999;28;20033;-57
2021/04/01 23:21:36;;;;;;;1.63;0.77;;;18.50;58.70;;;;;;10480661;28;20111;-57
2021/04/01 23:26:37;;;;;;;2.80;1.15;;;18.50;58.70;;;;;;10499091;28;20063;-57
2021/04/01 23:31:37;;;;;;;2.72;1.20;;;18.50;58.70;;;;;;10472717;28;20107;-57
2021/04/01 23:36:38;;;;;;;3.08;1.02;;;18.50;58.60;;;;;;10483037;28;20534;-57
2021/04/01 23:41:39;;;;;;;2.15;1.05;;;18.50;58.60;;;;;;10472695;28;20039;-57
2021/04/01 23:46:40;;;;;;;4.18;1.73;;;18.40;58.50;;;;;;10456354;28;20033;-58
2021/04/01 23:51:41;;;;;;;3.08;1.58;;;18.40;58.40;;;;;;10472715;28;20167;-57
2021/04/01 23:56:46;;;;;;;2.45;1.08;;;18.40;58.50;;;;;;10492298;28;20040;-57
